sensor_id;sensor_type;location;lat;lon;timestamp;P1;durP1;ratioP1;P2;durP2;ratioP2
78290;SDS011;67543;45.494;9.100;2023-03-24T06:48:48;4.38;;;3.30;;
78290;SDS011;67543;45.494;9.100;2023-03-24T06:51:13;4.47;;;3.97;;
78290;SDS011;67543;45.494;9.100;2023-03-24T06:53:39;4.82;;;3.00;;
78290;SDS011;67543;45.494;9.100;2023-03-24T06:56:05;6.05;;;3.60;;
78290;SDS011;67543;45.494;9.100;2023-03-24T06:58:31;4.25;;;3.03;;
78290;SDS011;67543;45.494;9.100;2023-03-24T07:00:58;6.90;;;2.83;;
78290;SDS011;67543;45.494;9.100;2023-03-24T07:03:24;4.32;;;3.08;;
78290;SDS011;67543;45.494;9.100;2023-03-24T07:05:50;5.25;;;3.33;;
78290;SDS011;67543;45.494;9.100;2023-03-24T07:08:16;5.80;;;3.47;;
78290;SDS011;67543;45.494;9.100;2023-03-24T07:10:41;3.25;;;2.95;;
78290;SDS011;67543;45.494;9.100;2023-03-24T07:13:07;3.67;;;2.60;;
78290;SDS011;67543;45.494;9.100;2023-03-24T07:15:33;4.85;;;2.70;;
78290;SDS011;67543;45.494;9.100;2023-03-24T07:17:58;4.63;;;2.80;;
78290;SDS011;67543;45.494;9.100;2023-03-24T07:20:24;3.75;;;2.90;;
78290;SDS011;67543;45.494;9.100;2023-03-24T07:22:50;4.78;;;2.75;;
78290;SDS011;67543;45.494;9.100;2023-03-24T07:25:19;2.88;;;2.30;;
78290;SDS011;67543;45.494;9.100;2023-03-24T07:27:45;4.57;;;2.25;;
78290;SDS011;67543;45.494;9.100;2023-03-24T07:30:11;4.32;;;2.53;;
78290;SDS011;67543;45.494;9.100;2023-03-24T07:32:36;4.95;;;3.30;;
78290;SDS011;67543;45.494;9.100;2023-03-24T07:35:04;4.32;;;3.03;;
78290;SDS011;67543;45.494;9.100;2023-03-24T07:37:35;4.72;;;3.17;;
78290;SDS011;67543;45.494;9.100;2023-03-24T07:40:00;3.53;;;3.03;;
78290;SDS011;67543;45.494;9.100;2023-03-24T07:42:30;5.40;;;2.63;;
78290;SDS011;67543;45.494;9.100;2023-03-24T07:44:56;3.38;;;2.30;;
78290;SDS011;67543;45.494;9.100;2023-03-24T07:47:21;5.13;;;2.63;;
78290;SDS011;67543;45.494;9.100;2023-03-24T07:49:47;5.53;;;3.42;;
78290;SDS011;67543;45.494;9.100;2023-03-24T07:52:12;6.23;;;2.60;;
78290;SDS011;67543;45.494;9.100;2023-03-24T07:54:38;2.83;;;2.53;;
78290;SDS011;67543;45.494;9.100;2023-03-24T07:57:03;6.13;;;2.63;;
78290;SDS011;67543;45.494;9.100;2023-03-24T07:59:29;3.88;;;2.55;;
78290;SDS011;67543;45.494;9.100;2023-03-24T08:01:55;4.28;;;2.92;;
78290;SDS011;67543;45.494;9.100;2023-03-24T08:04:20;6.63;;;2.72;;
78290;SDS011;67543;45.494;9.100;2023-03-24T08:06:46;3.63;;;2.67;;
78290;SDS011;67543;45.494;9.100;2023-03-24T08:09:11;3.80;;;2.30;;
78290;SDS011;67543;45.494;9.100;2023-03-24T08:11:37;4.63;;;2.67;;
78290;SDS011;67543;45.494;9.100;2023-03-24T08:14:03;5.47;;;2.53;;
78290;SDS011;67543;45.494;9.100;2023-03-24T08:16:28;4.38;;;2.30;;
78290;SDS011;67543;45.494;9.100;2023-03-24T08:18:54;4.80;;;2.63;;
78290;SDS011;67543;45.494;9.100;2023-03-24T08:21:22;3.00;;;2.30;;
78290;SDS011;67543;45.494;9.100;2023-03-24T08:23:48;4.78;;;2.88;;
78290;SDS011;67543;45.494;9.100;2023-03-24T08:26:13;2.83;;;2.20;;
78290;SDS011;67543;45.494;9.100;2023-03-24T08:28:39;2.35;;;2.15;;
78290;SDS011;67543;45.494;9.100;2023-03-24T08:31:05;6.07;;;2.70;;
78290;SDS011;67543;45.494;9.100;2023-03-24T08:33:31;4.03;;;2.30;;
78290;SDS011;67543;45.494;9.100;2023-03-24T08:35:56;4.82;;;2.47;;
78290;SDS011;67543;45.494;9.100;2023-03-24T08:38:22;3.25;;;2.35;;
78290;SDS011;67543;45.494;9.100;2023-03-24T08:40:55;2.42;;;1.80;;
78290;SDS011;67543;45.494;9.100;2023-03-24T08:43:22;5.95;;;2.30;;
78290;SDS011;67543;45.494;9.100;2023-03-24T08:45:48;2.90;;;2.55;;
78290;SDS011;67543;45.494;9.100;2023-03-24T08:48:14;4.80;;;2.60;;
78290;SDS011;67543;45.494;9.100;2023-03-24T08:50:40;4.50;;;2.20;;
78290;SDS011;67543;45.494;9.100;2023-03-24T08:53:06;4.88;;;1.98;;
78290;SDS011;67543;45.494;9.100;2023-03-24T08:55:32;3.92;;;2.13;;
78290;SDS011;67543;45.494;9.100;2023-03-24T08:57:58;5.22;;;2.33;;
78290;SDS011;67543;45.494;9.100;2023-03-24T09:00:24;3.83;;;2.35;;
78290;SDS011;67543;45.494;9.100;2023-03-24T09:02:50;4.75;;;2.35;;
78290;SDS011;67543;45.494;9.100;2023-03-24T09:05:18;4.13;;;2.50;;
78290;SDS011;67543;45.494;9.100;2023-03-24T09:07:44;5.15;;;2.70;;
78290;SDS011;67543;45.494;9.100;2023-03-24T09:10:10;4.43;;;2.40;;
78290;SDS011;67543;45.494;9.100;2023-03-24T09:12:37;4.25;;;2.00;;
78290;SDS011;67543;45.494;9.100;2023-03-24T09:15:04;3.22;;;2.20;;
78290;SDS011;67543;45.494;9.100;2023-03-24T09:17:32;2.60;;;2.38;;
78290;SDS011;67543;45.494;9.100;2023-03-24T09:19:57;5.90;;;3.05;;
78290;SDS011;67543;45.494;9.100;2023-03-24T09:22:23;5.13;;;1.80;;
78290;SDS011;67543;45.494;9.100;2023-03-24T09:24:48;2.88;;;2.58;;
78290;SDS011;67543;45.494;9.100;2023-03-24T09:27:17;4.20;;;2.78;;
78290;SDS011;67543;45.494;9.100;2023-03-24T09:29:43;3.72;;;2.10;;
78290;SDS011;67543;45.494;9.100;2023-03-24T09:32:08;5.32;;;1.83;;
78290;SDS011;67543;45.494;9.100;2023-03-24T09:34:34;5.40;;;2.00;;
78290;SDS011;67543;45.494;9.100;2023-03-24T09:37:02;3.45;;;2.00;;
78290;SDS011;67543;45.494;9.100;2023-03-24T09:39:28;3.42;;;2.75;;
78290;SDS011;67543;45.494;9.100;2023-03-24T09:41:54;3.80;;;2.38;;
78290;SDS011;67543;45.494;9.100;2023-03-24T09:44:27;2.95;;;2.40;;
78290;SDS011;67543;45.494;9.100;2023-03-24T09:46:57;2.40;;;1.85;;
78290;SDS011;67543;45.494;9.100;2023-03-24T09:49:29;4.57;;;2.70;;
78290;SDS011;67543;45.494;9.100;2023-03-24T09:52:02;4.97;;;2.28;;
78290;SDS011;67543;45.494;9.100;2023-03-24T09:54:31;4.45;;;2.55;;
78290;SDS011;67543;45.494;9.100;2023-03-24T09:57:10;3.45;;;2.03;;
78290;SDS011;67543;45.494;9.100;2023-03-24T09:59:43;3.20;;;2.22;;
78290;SDS011;67543;45.494;9.100;2023-03-24T10:02:11;2.42;;;1.75;;
78290;SDS011;67543;45.494;9.100;2023-03-24T10:04:40;2.15;;;1.50;;
78290;SDS011;67543;45.494;9.100;2023-03-24T10:07:07;4.45;;;2.88;;
78290;SDS011;67543;45.494;9.100;2023-03-24T10:09:48;4.43;;;1.65;;
78290;SDS011;67543;45.494;9.100;2023-03-24T10:12:24;4.47;;;2.13;;
78290;SDS011;67543;45.494;9.100;2023-03-24T10:17:52;5.15;;;2.15;;
78290;SDS011;67543;45.494;9.100;2023-03-24T10:26:23;3.17;;;2.30;;
78290;SDS011;67543;45.494;9.100;2023-03-24T10:31:02;3.17;;;2.40;;
78290;SDS011;67543;45.494;9.100;2023-03-24T10:33:29;4.13;;;2.83;;
78290;SDS011;67543;45.494;9.100;2023-03-24T10:35:57;4.03;;;2.70;;
78290;SDS011;67543;45.494;9.100;2023-03-24T10:38:27;4.38;;;2.17;;
78290;SDS011;67543;45.494;9.100;2023-03-24T10:40:53;6.18;;;2.95;;
78290;SDS011;67543;45.494;9.100;2023-03-24T10:43:19;3.70;;;2.30;;
78290;SDS011;67543;45.494;9.100;2023-03-24T10:45:46;6.82;;;2.50;;
78290;SDS011;67543;45.494;9.100;2023-03-24T10:48:13;4.40;;;3.35;;
78290;SDS011;67543;45.494;9.100;2023-03-24T10:50:44;2.75;;;2.47;;
78290;SDS011;67543;45.494;9.100;2023-03-24T10:53:17;6.00;;;3.00;;
78290;SDS011;67543;45.494;9.100;2023-03-24T10:55:43;7.32;;;3.25;;
78290;SDS011;67543;45.494;9.100;2023-03-24T10:58:16;5.93;;;2.67;;
78290;SDS011;67543;45.494;9.100;2023-03-24T11:01:08;3.80;;;2.95;;
78290;SDS011;67543;45.494;9.100;2023-03-24T11:03:50;6.20;;;2.70;;
78290;SDS011;67543;45.494;9.100;2023-03-24T11:06:17;4.82;;;2.42;;
78290;SDS011;67543;45.494;9.100;2023-03-24T11:08:44;4.43;;;3.67;;
78290;SDS011;67543;45.494;9.100;2023-03-24T11:11:29;4.80;;;2.85;;
78290;SDS011;67543;45.494;9.100;2023-03-24T11:13:56;5.35;;;2.63;;
78290;SDS011;67543;45.494;9.100;2023-03-24T11:16:35;6.00;;;3.08;;
78290;SDS011;67543;45.494;9.100;2023-03-24T11:19:03;6.78;;;3.40;;
78290;SDS011;67543;45.494;9.100;2023-03-24T11:21:30;8.07;;;3.00;;
78290;SDS011;67543;45.494;9.100;2023-03-24T11:24:00;6.20;;;2.85;;
78290;SDS011;67543;45.494;9.100;2023-03-24T11:26:30;7.45;;;3.25;;
78290;SDS011;67543;45.494;9.100;2023-03-24T11:29:05;7.45;;;3.08;;
78290;SDS011;67543;45.494;9.100;2023-03-24T11:31:34;5.20;;;2.67;;
78290;SDS011;67543;45.494;9.100;2023-03-24T11:36:39;4.38;;;2.92;;
78290;SDS011;67543;45.494;9.100;2023-03-24T11:39:14;5.65;;;3.28;;
78290;SDS011;67543;45.494;9.100;2023-03-24T11:42:27;4.45;;;2.60;;
78290;SDS011;67543;45.494;9.100;2023-03-24T11:44:44;7.50;;;4.45;;
78290;SDS011;67543;45.494;9.100;2023-03-24T11:47:22;4.43;;;2.67;;
78290;SDS011;67543;45.494;9.100;2023-03-24T11:52:23;4.25;;;3.67;;
78290;SDS011;67543;45.494;9.100;2023-03-24T11:54:52;5.60;;;3.10;;
78290;SDS011;67543;45.494;9.100;2023-03-24T11:57:25;6.35;;;3.17;;
78290;SDS011;67543;45.494;9.100;2023-03-24T12:03:01;4.43;;;2.80;;
78290;SDS011;67543;45.494;9.100;2023-03-24T12:14:48;7.32;;;2.75;;
78290;SDS011;67543;45.494;9.100;2023-03-24T12:17:31;3.22;;;2.80;;
78290;SDS011;67543;45.494;9.100;2023-03-24T12:22:55;5.40;;;3.00;;
78290;SDS011;67543;45.494;9.100;2023-03-24T12:33:41;4.07;;;3.03;;
78290;SDS011;67543;45.494;9.100;2023-03-24T12:41:32;6.32;;;3.47;;
78290;SDS011;67543;45.494;9.100;2023-03-24T12:46:51;4.25;;;3.53;;
78290;SDS011;67543;45.494;9.100;2023-03-24T12:49:40;3.72;;;2.92;;
78290;SDS011;67543;45.494;9.100;2023-03-24T12:55:09;7.80;;;3.05;;
78290;SDS011;67543;45.494;9.100;2023-03-24T12:57:40;4.65;;;3.10;;
78290;SDS011;67543;45.494;9.100;2023-03-24T13:05:23;6.07;;;3.22;;
78290;SDS011;67543;45.494;9.100;2023-03-24T13:07:53;4.45;;;2.90;;
78290;SDS011;67543;45.494;9.100;2023-03-24T13:10:26;9.43;;;3.13;;
78290;SDS011;67543;45.494;9.100;2023-03-24T13:15:25;3.58;;;2.50;;
78290;SDS011;67543;45.494;9.100;2023-03-24T13:20:31;4.57;;;2.88;;
78290;SDS011;67543;45.494;9.100;2023-03-24T13:23:03;3.20;;;2.67;;
78290;SDS011;67543;45.494;9.100;2023-03-24T13:25:47;6.65;;;3.65;;
78290;SDS011;67543;45.494;9.100;2023-03-24T13:28:27;5.38;;;2.60;;
78290;SDS011;67543;45.494;9.100;2023-03-24T13:30:55;4.90;;;2.42;;
78290;SDS011;67543;45.494;9.100;2023-03-24T13:33:26;4.30;;;2.50;;
78290;SDS011;67543;45.494;9.100;2023-03-24T13:36:03;3.05;;;2.08;;
78290;SDS011;67543;45.494;9.100;2023-03-24T13:38:37;5.75;;;2.40;;
78290;SDS011;67543;45.494;9.100;2023-03-24T13:41:10;3.13;;;2.17;;
78290;SDS011;67543;45.494;9.100;2023-03-24T13:43:38;5.30;;;3.08;;
78290;SDS011;67543;45.494;9.100;2023-03-24T13:46:12;4.97;;;3.03;;
78290;SDS011;67543;45.494;9.100;2023-03-24T13:48:38;6.38;;;2.95;;
78290;SDS011;67543;45.494;9.100;2023-03-24T13:51:48;6.93;;;2.60;;
78290;SDS011;67543;45.494;9.100;2023-03-24T13:54:06;5.90;;;3.08;;
78290;SDS011;67543;45.494;9.100;2023-03-24T13:56:38;4.90;;;2.28;;
78290;SDS011;67543;45.494;9.100;2023-03-24T14:09:57;8.48;;;2.72;;
78290;SDS011;67543;45.494;9.100;2023-03-24T14:12:24;6.13;;;3.10;;
78290;SDS011;67543;45.494;9.100;2023-03-24T14:17:44;5.72;;;3.03;;
78290;SDS011;67543;45.494;9.100;2023-03-24T14:20:12;4.70;;;3.25;;
78290;SDS011;67543;45.494;9.100;2023-03-24T14:22:49;5.20;;;3.05;;
78290;SDS011;67543;45.494;9.100;2023-03-24T14:27:42;5.95;;;3.40;;
78290;SDS011;67543;45.494;9.100;2023-03-24T14:32:54;5.68;;;3.20;;
78290;SDS011;67543;45.494;9.100;2023-03-24T14:35:40;5.30;;;3.70;;
78290;SDS011;67543;45.494;9.100;2023-03-24T14:40:44;3.78;;;2.13;;
78290;SDS011;67543;45.494;9.100;2023-03-24T14:48:51;5.32;;;3.17;;
78290;SDS011;67543;45.494;9.100;2023-03-24T14:53:51;5.53;;;3.47;;
78290;SDS011;67543;45.494;9.100;2023-03-24T14:56:20;4.47;;;2.67;;
78290;SDS011;67543;45.494;9.100;2023-03-24T14:58:47;4.97;;;3.15;;
78290;SDS011;67543;45.494;9.100;2023-03-24T15:01:15;5.03;;;2.92;;
78290;SDS011;67543;45.494;9.100;2023-03-24T15:08:49;7.30;;;4.13;;
78290;SDS011;67543;45.494;9.100;2023-03-24T15:11:28;8.57;;;4.93;;
78290;SDS011;67543;45.494;9.100;2023-03-24T15:13:55;14.95;;;8.45;;
78290;SDS011;67543;45.494;9.100;2023-03-24T15:16:25;9.07;;;4.40;;
78290;SDS011;67543;45.494;9.100;2023-03-24T15:18:53;7.63;;;3.20;;
78290;SDS011;67543;45.494;9.100;2023-03-24T15:21:23;9.00;;;3.70;;
78290;SDS011;67543;45.494;9.100;2023-03-24T15:23:51;6.78;;;3.95;;
78290;SDS011;67543;45.494;9.100;2023-03-24T15:26:18;8.40;;;4.20;;
78290;SDS011;67543;45.494;9.100;2023-03-24T15:28:46;8.82;;;4.40;;
78290;SDS011;67543;45.494;9.100;2023-03-24T15:31:18;7.53;;;4.60;;
78290;SDS011;67543;45.494;9.100;2023-03-24T15:33:46;7.57;;;3.28;;
78290;SDS011;67543;45.494;9.100;2023-03-24T15:36:15;8.90;;;3.17;;
78290;SDS011;67543;45.494;9.100;2023-03-24T15:38:45;6.07;;;2.55;;
78290;SDS011;67543;45.494;9.100;2023-03-24T15:41:14;3.95;;;3.45;;
78290;SDS011;67543;45.494;9.100;2023-03-24T15:43:45;3.80;;;2.58;;
78290;SDS011;67543;45.494;9.100;2023-03-24T15:48:50;4.45;;;2.90;;
78290;SDS011;67543;45.494;9.100;2023-03-24T15:51:16;6.00;;;3.00;;
78290;SDS011;67543;45.494;9.100;2023-03-24T15:53:44;6.75;;;3.28;;
78290;SDS011;67543;45.494;9.100;2023-03-24T15:56:17;6.07;;;3.67;;
78290;SDS011;67543;45.494;9.100;2023-03-24T15:58:48;4.10;;;2.80;;
78290;SDS011;67543;45.494;9.100;2023-03-24T16:01:16;6.35;;;2.85;;
78290;SDS011;67543;45.494;9.100;2023-03-24T16:03:43;8.95;;;4.28;;
78290;SDS011;67543;45.494;9.100;2023-03-24T16:06:13;7.25;;;4.65;;
78290;SDS011;67543;45.494;9.100;2023-03-24T16:08:40;8.65;;;4.00;;
78290;SDS011;67543;45.494;9.100;2023-03-24T16:11:15;6.40;;;3.67;;
78290;SDS011;67543;45.494;9.100;2023-03-24T16:13:42;7.00;;;2.67;;
78290;SDS011;67543;45.494;9.100;2023-03-24T16:18:38;8.90;;;3.45;;
78290;SDS011;67543;45.494;9.100;2023-03-24T16:21:09;6.00;;;3.38;;
78290;SDS011;67543;45.494;9.100;2023-03-24T16:26:01;7.57;;;4.10;;
78290;SDS011;67543;45.494;9.100;2023-03-24T16:28:27;4.15;;;2.60;;
78290;SDS011;67543;45.494;9.100;2023-03-24T16:30:59;8.27;;;4.18;;
78290;SDS011;67543;45.494;9.100;2023-03-24T16:33:27;7.93;;;3.75;;
78290;SDS011;67543;45.494;9.100;2023-03-24T16:35:54;6.80;;;3.90;;
78290;SDS011;67543;45.494;9.100;2023-03-24T16:38:19;5.47;;;4.40;;
78290;SDS011;67543;45.494;9.100;2023-03-24T16:40:47;6.25;;;3.60;;
78290;SDS011;67543;45.494;9.100;2023-03-24T16:43:14;6.80;;;3.17;;
78290;SDS011;67543;45.494;9.100;2023-03-24T16:45:40;7.13;;;3.58;;
78290;SDS011;67543;45.494;9.100;2023-03-24T16:48:08;4.88;;;2.92;;
78290;SDS011;67543;45.494;9.100;2023-03-24T16:50:35;4.60;;;3.22;;
78290;SDS011;67543;45.494;9.100;2023-03-24T16:53:03;6.70;;;3.33;;
78290;SDS011;67543;45.494;9.100;2023-03-24T16:55:29;8.52;;;3.72;;
78290;SDS011;67543;45.494;9.100;2023-03-24T16:57:57;7.70;;;3.10;;
78290;SDS011;67543;45.494;9.100;2023-03-24T17:00:23;8.13;;;2.80;;
78290;SDS011;67543;45.494;9.100;2023-03-24T17:02:49;5.55;;;3.78;;
78290;SDS011;67543;45.494;9.100;2023-03-24T17:05:25;7.78;;;4.90;;
78290;SDS011;67543;45.494;9.100;2023-03-24T17:07:52;6.20;;;4.32;;
78290;SDS011;67543;45.494;9.100;2023-03-24T17:10:18;6.30;;;3.75;;
78290;SDS011;67543;45.494;9.100;2023-03-24T17:12:44;7.10;;;4.25;;
78290;SDS011;67543;45.494;9.100;2023-03-24T17:15:29;4.93;;;2.40;;
78290;SDS011;67543;45.494;9.100;2023-03-24T17:17:55;5.70;;;3.95;;
78290;SDS011;67543;45.494;9.100;2023-03-24T17:20:21;8.40;;;3.30;;
78290;SDS011;67543;45.494;9.100;2023-03-24T17:22:49;4.75;;;2.15;;
78290;SDS011;67543;45.494;9.100;2023-03-24T17:25:16;4.80;;;2.45;;
78290;SDS011;67543;45.494;9.100;2023-03-24T17:27:43;5.80;;;2.38;;
78290;SDS011;67543;45.494;9.100;2023-03-24T17:30:09;3.05;;;1.42;;
78290;SDS011;67543;45.494;9.100;2023-03-24T17:32:40;2.70;;;2.05;;
78290;SDS011;67543;45.494;9.100;2023-03-24T17:35:05;4.55;;;1.88;;
78290;SDS011;67543;45.494;9.100;2023-03-24T17:37:34;4.78;;;2.22;;
78290;SDS011;67543;45.494;9.100;2023-03-24T17:40:00;4.90;;;1.50;;
78290;SDS011;67543;45.494;9.100;2023-03-24T17:42:27;4.45;;;1.95;;
78290;SDS011;67543;45.494;9.100;2023-03-24T17:44:53;5.72;;;1.58;;
78290;SDS011;67543;45.494;9.100;2023-03-24T17:47:18;3.47;;;1.23;;
78290;SDS011;67543;45.494;9.100;2023-03-24T17:49:43;5.40;;;1.60;;
78290;SDS011;67543;45.494;9.100;2023-03-24T17:52:09;3.60;;;1.10;;
78290;SDS011;67543;45.494;9.100;2023-03-24T17:54:34;6.05;;;2.53;;
78290;SDS011;67543;45.494;9.100;2023-03-24T17:57:00;6.95;;;1.38;;
78290;SDS011;67543;45.494;9.100;2023-03-24T17:59:25;5.57;;;1.83;;
78290;SDS011;67543;45.494;9.100;2023-03-24T18:01:51;4.85;;;1.30;;
78290;SDS011;67543;45.494;9.100;2023-03-24T18:04:16;2.95;;;1.58;;
78290;SDS011;67543;45.494;9.100;2023-03-24T18:06:42;3.17;;;1.20;;
78290;SDS011;67543;45.494;9.100;2023-03-24T18:09:08;2.38;;;1.55;;
78290;SDS011;67543;45.494;9.100;2023-03-24T18:11:34;3.58;;;1.55;;
78290;SDS011;67543;45.494;9.100;2023-03-24T18:14:00;3.28;;;2.00;;
78290;SDS011;67543;45.494;9.100;2023-03-24T18:16:25;3.35;;;1.67;;
78290;SDS011;67543;45.494;9.100;2023-03-24T23:43:39;4.53;;;3.83;;
78290;SDS011;67543;45.494;9.100;2023-03-24T23:46:05;8.15;;;3.75;;
